首页
METAR-TAF:

METAR-TAF

机场 :

大马士革国际机场

大马士革, 叙利亚

纬度: 33-25N, 经度: 036-31E, 海拔: 608米

当前天气观测

该预报发布于51分钟前的23:00 UTC
风速3节,风向东转东北
温度 14°C
湿度 88%
气压 1018 hPa
能見度: 6000

METAR: OSDI 212300Z 07003KT 6000 14/12 Q1018

时间: 02:51 (23:51 UTC)

预报

预报有效从22日的 00点(UTC)到 23日的 06点(UTC)
风速3节,风向多变
能見度: 3000
轻雾
短暂存在
从 22日的 01点(UTC)到 22日的 06点(UTC)
能見度: 0200
散云层高于700英尺
成为
从 22日的 06点(UTC)到 22日的 08点(UTC)
风速10节,风向西南
能見度: 8000
少量云层高于3000英尺

TAF: OSDI 2200/2306 VRB03KT 3000 BR TEMPO 2201/2206 0200 FG SCT007 BECMG 2206/2208 22010KT 8000 FEW030

超过4000个机场的气象观测和天气预报(METAR&TAF报告)。

可查询的气象台以黄色和红色小点在地图上表示。

将鼠标移到小点上方,可查看气象台名称。

然后点击查看天气观测和预报。

如需切换地图:点击带黑十字的绿色按钮放大地图;点击带横线的绿色按钮缩小地图;或者点击绿色箭头查看邻近地区的地图。


METAR-TAF: